N417JT KFLY-KTWF
Flight info
| Callsign | N417JT |
|---|---|
| Flight time | N/A |
| Altitude | 26000 |
| Route | BULDG EKR TWF |
| Aircraft | SF50/L-BDGRSWY/LB2U2 |
Departure
| Time | 2026-05-05 01:19 |
|---|---|
| Airport | Meadow Lake Airport (KFLY) |
Arrival
| Time | N/A |
|---|---|
| Airport | Joslin Field Magic Valley Regional Airport (KTWF) |
| Time | Latitude | Longitude | Altitude | Speed | Heading |
|---|---|---|---|---|---|
| 2026-05-05 01:09 | 38.95403 | -104.57357 | 6871 ft | 0 kts | 358° |
| 2026-05-05 01:12 | 38.95420 | -104.57364 | 6877 ft | 3 kts | 281° |
| 2026-05-05 01:12 | 38.95406 | -104.57404 | 6875 ft | 8 kts | 176° |
| 2026-05-05 01:13 | 38.95323 | -104.57395 | 6870 ft | 14 kts | 156° |
| 2026-05-05 01:13 | 38.95221 | -104.57346 | 6864 ft | 17 kts | 160° |
| 2026-05-05 01:13 | 38.95109 | -104.57296 | 6861 ft | 17 kts | 162° |
| 2026-05-05 01:13 | 38.94991 | -104.57241 | 6857 ft | 19 kts | 160° |
| 2026-05-05 01:14 | 38.94890 | -104.57195 | 6854 ft | 13 kts | 160° |
| 2026-05-05 01:14 | 38.94804 | -104.57157 | 6853 ft | 13 kts | 160° |
| 2026-05-05 01:14 | 38.94711 | -104.57114 | 6849 ft | 16 kts | 161° |
| 2026-05-05 01:14 | 38.94595 | -104.57062 | 6841 ft | 20 kts | 160° |
| 2026-05-05 01:15 | 38.94478 | -104.56983 | 6834 ft | 17 kts | 157° |
| 2026-05-05 01:15 | 38.94352 | -104.56925 | 6825 ft | 21 kts | 161° |
| 2026-05-05 01:15 | 38.94210 | -104.56861 | 6821 ft | 22 kts | 161° |
| 2026-05-05 01:15 | 38.94059 | -104.56792 | 6815 ft | 24 kts | 160° |
| 2026-05-05 01:16 | 38.93902 | -104.56721 | 6812 ft | 24 kts | 160° |
| 2026-05-05 01:16 | 38.93819 | -104.56695 | 6809 ft | 9 kts | 213° |
| 2026-05-05 01:16 | 38.93806 | -104.56754 | 6811 ft | 5 kts | 300° |
| 2026-05-05 01:16 | 38.93818 | -104.56771 | 6812 ft | 0 kts | 352° |
| 2026-05-05 01:18 | 38.93859 | -104.56786 | 6813 ft | 26 kts | 340° |
| 2026-05-05 01:18 | 38.94215 | -104.56949 | 6823 ft | 79 kts | 341° |
| 2026-05-05 01:18 | 38.94814 | -104.57218 | 7025 ft | 102 kts | 340° |
| 2026-05-05 01:19 | 38.95539 | -104.57606 | 7375 ft | 118 kts | 342° |
| 2026-05-05 01:19 | 38.96287 | -104.58192 | 7726 ft | 136 kts | 322° |
| 2026-05-05 01:19 | 38.96793 | -104.59407 | 7860 ft | 174 kts | 292° |
| 2026-05-05 01:19 | 38.96989 | -104.61004 | 8005 ft | 194 kts | 274° |
| 2026-05-05 01:20 | 38.96787 | -104.62754 | 8400 ft | 201 kts | 257° |
| 2026-05-05 01:20 | 38.96170 | -104.64376 | 8851 ft | 203 kts | 238° |
| 2026-05-05 01:20 | 38.95191 | -104.65710 | 9261 ft | 206 kts | 220° |
| 2026-05-05 01:20 | 38.94411 | -104.67196 | 9676 ft | 204 kts | 265° |
| 2026-05-05 01:21 | 38.94782 | -104.68810 | 10085 ft | 188 kts | 319° |
| 2026-05-05 01:21 | 38.95810 | -104.69831 | 10442 ft | 189 kts | 324° |
| 2026-05-05 01:21 | 38.96722 | -104.71084 | 10855 ft | 194 kts | 307° |
| 2026-05-05 01:21 | 38.97375 | -104.72610 | 11311 ft | 195 kts | 298° |
| 2026-05-05 01:22 | 38.97992 | -104.74155 | 11781 ft | 192 kts | 300° |
| 2026-05-05 01:22 | 38.98633 | -104.75667 | 12218 ft | 193 kts | 299° |
| 2026-05-05 01:22 | 38.99262 | -104.77157 | 12711 ft | 191 kts | 298° |
| 2026-05-05 01:22 | 38.99902 | -104.78677 | 13109 ft | 195 kts | 297° |
| 2026-05-05 01:23 | 39.00540 | -104.80201 | 13640 ft | 191 kts | 296° |
| 2026-05-05 01:23 | 39.01177 | -104.81717 | 14024 ft | 193 kts | 296° |
| 2026-05-05 01:23 | 39.01822 | -104.83252 | 14374 ft | 197 kts | 296° |
| 2026-05-05 01:23 | 39.02467 | -104.84782 | 14782 ft | 196 kts | 295° |
| 2026-05-05 01:24 | 39.03114 | -104.86317 | 15202 ft | 195 kts | 295° |
| 2026-05-05 01:24 | 39.03765 | -104.87874 | 15550 ft | 197 kts | 295° |
| 2026-05-05 01:24 | 39.04418 | -104.89427 | 15959 ft | 196 kts | 295° |
| 2026-05-05 01:24 | 39.05069 | -104.90977 | 16336 ft | 197 kts | 295° |
| 2026-05-05 01:25 | 39.05714 | -104.92513 | 16699 ft | 198 kts | 295° |
| 2026-05-05 01:25 | 39.06374 | -104.94086 | 17058 ft | 200 kts | 294° |
| 2026-05-05 01:25 | 39.07015 | -104.95658 | 17445 ft | 197 kts | 294° |
| 2026-05-05 01:25 | 39.07682 | -104.97215 | 17790 ft | 199 kts | 294° |
| 2026-05-05 01:26 | 39.08339 | -104.98784 | 18153 ft | 199 kts | 293° |
| 2026-05-05 01:26 | 39.08998 | -105.00361 | 18359 ft | 200 kts | 293° |
| 2026-05-05 01:26 | 39.09650 | -105.01926 | 18680 ft | 200 kts | 293° |
| 2026-05-05 01:26 | 39.10310 | -105.03508 | 19001 ft | 201 kts | 293° |
| 2026-05-05 01:27 | 39.10973 | -105.05096 | 19332 ft | 201 kts | 294° |
| 2026-05-05 01:27 | 39.11640 | -105.06686 | 19667 ft | 201 kts | 294° |
| 2026-05-05 01:27 | 39.12295 | -105.08259 | 19999 ft | 202 kts | 294° |
| 2026-05-05 01:27 | 39.12963 | -105.09856 | 20323 ft | 202 kts | 294° |
| 2026-05-05 01:28 | 39.13629 | -105.11457 | 20644 ft | 203 kts | 294° |
| 2026-05-05 01:28 | 39.14299 | -105.13065 | 20966 ft | 202 kts | 294° |
| 2026-05-05 01:28 | 39.14961 | -105.14661 | 21295 ft | 201 kts | 294° |
| 2026-05-05 01:28 | 39.15622 | -105.16217 | 21645 ft | 200 kts | 294° |
| 2026-05-05 01:29 | 39.16268 | -105.17797 | 21985 ft | 199 kts | 294° |
| 2026-05-05 01:29 | 39.16918 | -105.19371 | 22301 ft | 198 kts | 295° |
| 2026-05-05 01:29 | 39.17575 | -105.20924 | 22683 ft | 196 kts | 295° |
| 2026-05-05 01:29 | 39.18214 | -105.22477 | 23038 ft | 195 kts | 294° |
| 2026-05-05 01:30 | 39.18852 | -105.24024 | 23395 ft | 194 kts | 295° |
| 2026-05-05 01:30 | 39.19478 | -105.25532 | 23682 ft | 193 kts | 295° |
| 2026-05-05 01:30 | 39.20114 | -105.27050 | 24004 ft | 191 kts | 294° |
| 2026-05-05 01:30 | 39.20734 | -105.28558 | 24302 ft | 189 kts | 294° |
| 2026-05-05 01:31 | 39.21357 | -105.30063 | 24554 ft | 190 kts | 294° |
| 2026-05-05 01:31 | 39.21972 | -105.31545 | 24834 ft | 188 kts | 294° |
| 2026-05-05 01:31 | 39.22589 | -105.33034 | 25136 ft | 187 kts | 294° |
| 2026-05-05 01:31 | 39.23197 | -105.34507 | 25448 ft | 185 kts | 294° |
| 2026-05-05 01:32 | 39.23800 | -105.35972 | 25702 ft | 185 kts | 294° |
| 2026-05-05 01:32 | 39.24406 | -105.37438 | 25986 ft | 184 kts | 294° |
| 2026-05-05 01:32 | 39.24999 | -105.38880 | 26258 ft | 183 kts | 294° |
| 2026-05-05 01:32 | 39.25605 | -105.40318 | 26583 ft | 182 kts | 294° |
| 2026-05-05 01:33 | 39.26176 | -105.41772 | 26812 ft | 181 kts | 294° |
| 2026-05-05 01:33 | 39.26770 | -105.43183 | 27113 ft | 180 kts | 294° |
| 2026-05-05 01:33 | 39.27352 | -105.44607 | 27401 ft | 179 kts | 294° |
| 2026-05-05 01:33 | 39.27945 | -105.46019 | 27731 ft | 177 kts | 294° |
| 2026-05-05 01:34 | 39.28524 | -105.47420 | 27999 ft | 176 kts | 294° |
| 2026-05-05 01:34 | 39.29101 | -105.48810 | 28334 ft | 175 kts | 293° |
| 2026-05-05 01:34 | 39.29668 | -105.50175 | 28660 ft | 174 kts | 293° |
| 2026-05-05 01:34 | 39.30231 | -105.51557 | 28975 ft | 173 kts | 293° |
| 2026-05-05 01:35 | 39.30794 | -105.52927 | 29282 ft | 171 kts | 293° |
| 2026-05-05 01:35 | 39.31351 | -105.54286 | 29588 ft | 170 kts | 293° |
| 2026-05-05 01:35 | 39.31907 | -105.55637 | 29835 ft | 171 kts | 293° |
| 2026-05-05 01:35 | 39.32482 | -105.57022 | 29839 ft | 182 kts | 293° |
| 2026-05-05 01:36 | 39.33086 | -105.58510 | 29848 ft | 191 kts | 293° |
| 2026-05-05 01:36 | 39.33728 | -105.60065 | 29857 ft | 199 kts | 294° |
| 2026-05-05 01:36 | 39.34394 | -105.61687 | 29849 ft | 207 kts | 293° |
| 2026-05-05 01:36 | 39.35065 | -105.63347 | 29850 ft | 214 kts | 293° |
| 2026-05-05 01:37 | 39.35773 | -105.65077 | 29838 ft | 220 kts | 293° |
| 2026-05-05 01:37 | 39.36263 | -105.66270 | 29845 ft | 225 kts | 293° |
| 2026-05-05 01:37 | 39.36996 | -105.68058 | 29849 ft | 231 kts | 293° |
| 2026-05-05 01:37 | 39.37760 | -105.69918 | 29851 ft | 236 kts | 294° |
| 2026-05-05 01:38 | 39.38533 | -105.71817 | 29851 ft | 241 kts | 293° |
| 2026-05-05 01:38 | 39.39324 | -105.73754 | 29853 ft | 245 kts | 294° |
| 2026-05-05 01:38 | 39.40129 | -105.75722 | 29856 ft | 250 kts | 294° |
| 2026-05-05 01:38 | 39.40949 | -105.77731 | 29863 ft | 254 kts | 294° |
| 2026-05-05 01:39 | 39.41772 | -105.79739 | 29864 ft | 257 kts | 294° |
| 2026-05-05 01:39 | 39.42607 | -105.81795 | 29863 ft | 259 kts | 294° |
| 2026-05-05 01:39 | 39.43451 | -105.83873 | 29867 ft | 261 kts | 294° |
| 2026-05-05 01:39 | 39.44306 | -105.85967 | 29871 ft | 264 kts | 294° |
| 2026-05-05 01:40 | 39.45166 | -105.88068 | 29858 ft | 264 kts | 294° |
| 2026-05-05 01:40 | 39.46004 | -105.90146 | 29858 ft | 263 kts | 294° |
| 2026-05-05 01:40 | 39.46854 | -105.92244 | 29872 ft | 263 kts | 294° |
| 2026-05-05 01:40 | 39.47708 | -105.94337 | 29880 ft | 262 kts | 294° |
| 2026-05-05 01:41 | 39.48556 | -105.96433 | 29876 ft | 262 kts | 294° |
| 2026-05-05 01:41 | 39.49393 | -105.98504 | 29880 ft | 263 kts | 294° |
| 2026-05-05 01:41 | 39.50244 | -106.00605 | 29875 ft | 263 kts | 294° |
| 2026-05-05 01:41 | 39.51101 | -106.02720 | 29878 ft | 266 kts | 294° |
| 2026-05-05 01:42 | 39.51951 | -106.04816 | 29886 ft | 267 kts | 294° |
| 2026-05-05 01:42 | 39.52815 | -106.06957 | 29898 ft | 267 kts | 294° |
| 2026-05-05 01:42 | 39.53676 | -106.09088 | 29895 ft | 266 kts | 294° |
| 2026-05-05 01:42 | 39.54535 | -106.11211 | 29897 ft | 264 kts | 294° |
| 2026-05-05 01:43 | 39.55383 | -106.13292 | 29889 ft | 266 kts | 294° |
| 2026-05-05 01:43 | 39.56243 | -106.15415 | 29886 ft | 265 kts | 294° |
| 2026-05-05 01:43 | 39.57086 | -106.17551 | 29889 ft | 267 kts | 294° |
| 2026-05-05 01:43 | 39.57940 | -106.19684 | 29891 ft | 266 kts | 294° |
| 2026-05-05 01:44 | 39.58800 | -106.21811 | 29903 ft | 266 kts | 294° |
| 2026-05-05 01:44 | 39.59661 | -106.23949 | 29893 ft | 267 kts | 294° |
| 2026-05-05 01:44 | 39.60509 | -106.26065 | 29896 ft | 266 kts | 294° |
| 2026-05-05 01:44 | 39.61365 | -106.28194 | 29893 ft | 265 kts | 293° |
| 2026-05-05 01:45 | 39.62216 | -106.30298 | 29892 ft | 262 kts | 293° |
| 2026-05-05 01:45 | 39.62959 | -106.32460 | 29893 ft | 262 kts | 287° |
| 2026-05-05 01:45 | 39.63565 | -106.34706 | 29893 ft | 264 kts | 287° |
| 2026-05-05 01:45 | 39.64198 | -106.36931 | 29887 ft | 266 kts | 288° |
| 2026-05-05 01:46 | 39.64848 | -106.39192 | 29892 ft | 268 kts | 287° |
| 2026-05-05 01:46 | 39.65492 | -106.41471 | 29891 ft | 268 kts | 287° |
| 2026-05-05 01:46 | 39.66130 | -106.43760 | 29893 ft | 268 kts | 287° |
| 2026-05-05 01:46 | 39.66757 | -106.46002 | 29893 ft | 266 kts | 287° |
| 2026-05-05 01:47 | 39.67391 | -106.48259 | 29897 ft | 265 kts | 287° |
| 2026-05-05 01:47 | 39.68027 | -106.50514 | 29900 ft | 265 kts | 287° |
| 2026-05-05 01:47 | 39.68658 | -106.52763 | 29893 ft | 264 kts | 287° |
| 2026-05-05 01:47 | 39.69285 | -106.55005 | 29899 ft | 264 kts | 287° |
| 2026-05-05 01:48 | 39.69909 | -106.57232 | 29895 ft | 267 kts | 287° |
| 2026-05-05 01:48 | 39.70542 | -106.59512 | 29896 ft | 268 kts | 287° |
| 2026-05-05 01:48 | 39.71178 | -106.61802 | 29880 ft | 270 kts | 287° |
| 2026-05-05 01:48 | 39.71816 | -106.64082 | 29888 ft | 268 kts | 287° |
| 2026-05-05 01:49 | 39.72455 | -106.66359 | 29883 ft | 267 kts | 287° |
| 2026-05-05 01:49 | 39.73089 | -106.68626 | 29883 ft | 266 kts | 287° |
| 2026-05-05 01:49 | 39.73708 | -106.70860 | 29885 ft | 266 kts | 287° |
| 2026-05-05 01:49 | 39.74337 | -106.73129 | 29884 ft | 268 kts | 287° |
| 2026-05-05 01:50 | 39.74972 | -106.75415 | 29888 ft | 270 kts | 287° |
| 2026-05-05 01:50 | 39.75613 | -106.77729 | 29888 ft | 271 kts | 287° |
| 2026-05-05 01:50 | 39.76251 | -106.80032 | 29889 ft | 270 kts | 287° |
| 2026-05-05 01:50 | 39.76878 | -106.82292 | 29880 ft | 269 kts | 287° |
| 2026-05-05 01:51 | 39.77510 | -106.84572 | 29883 ft | 268 kts | 287° |
| 2026-05-05 01:51 | 39.78143 | -106.86852 | 29881 ft | 268 kts | 287° |
| 2026-05-05 01:51 | 39.78775 | -106.89140 | 29964 ft | 268 kts | 287° |
| 2026-05-05 01:51 | 39.79404 | -106.91425 | 29966 ft | 268 kts | 287° |
| 2026-05-05 01:52 | 39.80036 | -106.93710 | 29959 ft | 269 kts | 287° |
| 2026-05-05 01:52 | 39.80667 | -106.96000 | 29957 ft | 268 kts | 287° |
| 2026-05-05 01:52 | 39.81295 | -106.98275 | 29950 ft | 267 kts | 287° |
| 2026-05-05 01:52 | 39.81919 | -107.00555 | 29948 ft | 267 kts | 287° |
| 2026-05-05 01:53 | 39.82535 | -107.02800 | 29945 ft | 266 kts | 287° |
| 2026-05-05 01:53 | 39.83164 | -107.05081 | 29936 ft | 267 kts | 287° |
| 2026-05-05 01:53 | 39.83790 | -107.07363 | 29930 ft | 268 kts | 287° |
| 2026-05-05 01:53 | 39.84421 | -107.09662 | 29927 ft | 269 kts | 287° |
| 2026-05-05 01:54 | 39.85052 | -107.11963 | 29938 ft | 270 kts | 288° |
| 2026-05-05 01:54 | 39.85678 | -107.14251 | 29933 ft | 273 kts | 288° |
| 2026-05-05 01:54 | 39.86319 | -107.16602 | 29926 ft | 276 kts | 288° |
| 2026-05-05 01:54 | 39.86965 | -107.18974 | 29928 ft | 278 kts | 288° |
| 2026-05-05 01:55 | 39.87616 | -107.21358 | 29927 ft | 280 kts | 288° |
| 2026-05-05 01:55 | 39.88270 | -107.23751 | 29928 ft | 280 kts | 288° |
| 2026-05-05 01:55 | 39.88918 | -107.26134 | 29924 ft | 278 kts | 288° |
| 2026-05-05 01:55 | 39.89555 | -107.28475 | 29921 ft | 277 kts | 288° |
| 2026-05-05 01:56 | 39.90196 | -107.30836 | 29920 ft | 276 kts | 288° |
| 2026-05-05 01:56 | 39.90838 | -107.33192 | 29917 ft | 276 kts | 288° |
| 2026-05-05 01:56 | 39.91479 | -107.35560 | 29913 ft | 277 kts | 288° |
| 2026-05-05 01:56 | 39.92121 | -107.37927 | 29917 ft | 278 kts | 288° |
| 2026-05-05 01:57 | 39.92767 | -107.40311 | 29922 ft | 279 kts | 287° |
| 2026-05-05 01:57 | 39.93399 | -107.42649 | 29926 ft | 274 kts | 287° |
| 2026-05-05 01:57 | 39.94033 | -107.44982 | 29921 ft | 270 kts | 287° |
| 2026-05-05 01:57 | 39.94652 | -107.47279 | 29890 ft | 272 kts | 287° |
| 2026-05-05 01:58 | 39.95281 | -107.49616 | 29892 ft | 274 kts | 287° |
| 2026-05-05 01:58 | 39.95918 | -107.51971 | 29895 ft | 275 kts | 287° |
| 2026-05-05 01:58 | 39.96553 | -107.54335 | 29898 ft | 276 kts | 287° |
| 2026-05-05 01:58 | 39.97179 | -107.56662 | 29900 ft | 274 kts | 287° |
| 2026-05-05 01:59 | 39.97811 | -107.59008 | 29899 ft | 272 kts | 287° |
| 2026-05-05 01:59 | 39.98427 | -107.61308 | 29866 ft | 271 kts | 287° |
| 2026-05-05 01:59 | 39.99051 | -107.63632 | 29871 ft | 272 kts | 287° |
| 2026-05-05 01:59 | 39.99676 | -107.65967 | 29873 ft | 273 kts | 287° |
| 2026-05-05 02:00 | 40.00305 | -107.68315 | 29876 ft | 274 kts | 287° |
| 2026-05-05 02:00 | 40.00936 | -107.70675 | 29879 ft | 276 kts | 288° |
| 2026-05-05 02:00 | 40.01569 | -107.73033 | 29880 ft | 275 kts | 287° |
| 2026-05-05 02:00 | 40.02197 | -107.75391 | 29847 ft | 274 kts | 287° |
| 2026-05-05 02:01 | 40.02818 | -107.77716 | 29845 ft | 273 kts | 287° |
| 2026-05-05 02:01 | 40.03442 | -107.80053 | 29845 ft | 272 kts | 287° |
| 2026-05-05 02:01 | 40.04063 | -107.82384 | 29951 ft | 271 kts | 287° |
| 2026-05-05 02:01 | 40.04680 | -107.84704 | 29944 ft | 271 kts | 287° |
| 2026-05-05 02:02 | 40.05300 | -107.87038 | 29946 ft | 273 kts | 287° |
| 2026-05-05 02:02 | 40.05917 | -107.89363 | 29950 ft | 275 kts | 287° |
| 2026-05-05 02:02 | 40.06546 | -107.91723 | 29945 ft | 275 kts | 287° |
| 2026-05-05 02:02 | 40.07360 | -107.93993 | 29945 ft | 277 kts | 296° |
| 2026-05-05 02:03 | 40.08284 | -107.96200 | 29820 ft | 276 kts | 295° |
| 2026-05-05 02:03 | 40.09179 | -107.98422 | 29821 ft | 276 kts | 294° |
| 2026-05-05 02:03 | 40.10082 | -108.00641 | 29814 ft | 276 kts | 295° |
| 2026-05-05 02:03 | 40.10980 | -108.02827 | 29795 ft | 276 kts | 295° |
| 2026-05-05 02:04 | 40.11881 | -108.05044 | 29783 ft | 274 kts | 294° |
| 2026-05-05 02:04 | 40.12762 | -108.07255 | 29784 ft | 273 kts | 295° |
| 2026-05-05 02:04 | 40.13664 | -108.09418 | 29804 ft | 273 kts | 296° |
| 2026-05-05 02:04 | 40.14567 | -108.11592 | 29796 ft | 270 kts | 295° |
| 2026-05-05 02:05 | 40.15448 | -108.13767 | 29786 ft | 268 kts | 295° |
| 2026-05-05 02:05 | 40.16316 | -108.15909 | 29793 ft | 270 kts | 295° |
| 2026-05-05 02:05 | 40.17211 | -108.18097 | 29789 ft | 272 kts | 295° |
| 2026-05-05 02:05 | 40.18107 | -108.20290 | 29780 ft | 274 kts | 295° |
| 2026-05-05 02:06 | 40.18996 | -108.22493 | 29775 ft | 273 kts | 295° |
| 2026-05-05 02:06 | 40.19870 | -108.24647 | 29772 ft | 271 kts | 295° |
| 2026-05-05 02:06 | 40.20752 | -108.26815 | 29770 ft | 269 kts | 295° |
| 2026-05-05 02:06 | 40.21629 | -108.28983 | 29769 ft | 269 kts | 295° |
| 2026-05-05 02:07 | 40.22511 | -108.31162 | 29771 ft | 271 kts | 295° |
| 2026-05-05 02:07 | 40.23395 | -108.33347 | 29773 ft | 272 kts | 295° |
| 2026-05-05 02:07 | 40.24274 | -108.35517 | 29774 ft | 273 kts | 295° |
| 2026-05-05 02:07 | 40.25165 | -108.37719 | 29775 ft | 274 kts | 295° |
| 2026-05-05 02:08 | 40.26056 | -108.39925 | 29773 ft | 273 kts | 295° |
| 2026-05-05 02:08 | 40.26945 | -108.42126 | 29771 ft | 272 kts | 295° |
| 2026-05-05 02:08 | 40.27834 | -108.44328 | 29768 ft | 273 kts | 295° |
| 2026-05-05 02:08 | 40.28712 | -108.46504 | 29778 ft | 273 kts | 294° |
| 2026-05-05 02:09 | 40.29599 | -108.48705 | 29776 ft | 273 kts | 294° |
| 2026-05-05 02:09 | 40.30482 | -108.50902 | 29776 ft | 272 kts | 294° |
| 2026-05-05 02:09 | 40.31368 | -108.53100 | 29776 ft | 272 kts | 294° |
| 2026-05-05 02:09 | 40.32250 | -108.55294 | 29775 ft | 272 kts | 294° |
| 2026-05-05 02:10 | 40.33121 | -108.57466 | 29773 ft | 271 kts | 294° |
| 2026-05-05 02:10 | 40.33999 | -108.59653 | 29777 ft | 271 kts | 294° |
| 2026-05-05 02:10 | 40.34878 | -108.61846 | 29777 ft | 271 kts | 294° |
| 2026-05-05 02:10 | 40.35746 | -108.64009 | 29777 ft | 271 kts | 294° |
| 2026-05-05 02:11 | 40.36623 | -108.66199 | 29778 ft | 270 kts | 294° |
| 2026-05-05 02:11 | 40.37499 | -108.68393 | 29778 ft | 270 kts | 294° |
| 2026-05-05 02:11 | 40.38366 | -108.70559 | 29775 ft | 270 kts | 294° |
| 2026-05-05 02:11 | 40.39238 | -108.72741 | 29768 ft | 270 kts | 294° |
| 2026-05-05 02:12 | 40.40114 | -108.74935 | 29774 ft | 271 kts | 294° |
| 2026-05-05 02:12 | 40.41884 | -108.79333 | 29760 ft | 273 kts | 294° |
| 2026-05-05 02:12 | 40.42762 | -108.81566 | 29764 ft | 276 kts | 294° |
| 2026-05-05 02:13 | 40.43647 | -108.83806 | 29777 ft | 276 kts | 293° |
| 2026-05-05 02:13 | 40.44528 | -108.86012 | 29774 ft | 275 kts | 293° |
| 2026-05-05 02:13 | 40.45417 | -108.88241 | 29771 ft | 275 kts | 293° |
| 2026-05-05 02:13 | 40.46306 | -108.90477 | 29784 ft | 274 kts | 294° |
| 2026-05-05 02:14 | 40.47189 | -108.92701 | 29775 ft | 274 kts | 293° |
| 2026-05-05 02:14 | 40.48058 | -108.94899 | 29773 ft | 274 kts | 293° |
| 2026-05-05 02:14 | 40.48939 | -108.97124 | 29774 ft | 274 kts | 293° |
| 2026-05-05 02:14 | 40.49821 | -108.99350 | 29771 ft | 274 kts | 293° |
| 2026-05-05 02:15 | 40.50704 | -109.01580 | 29771 ft | 274 kts | 293° |
| 2026-05-05 02:15 | 40.51574 | -109.03781 | 29768 ft | 275 kts | 293° |
| 2026-05-05 02:15 | 40.52460 | -109.06023 | 29773 ft | 276 kts | 293° |
| 2026-05-05 02:15 | 40.53350 | -109.08277 | 29778 ft | 277 kts | 293° |
| 2026-05-05 02:16 | 40.54230 | -109.10497 | 29787 ft | 277 kts | 294° |
| 2026-05-05 02:16 | 40.55124 | -109.12758 | 29772 ft | 279 kts | 292° |
| 2026-05-05 02:16 | 40.56017 | -109.15044 | 29782 ft | 282 kts | 293° |
| 2026-05-05 02:16 | 40.56915 | -109.17323 | 29787 ft | 284 kts | 293° |
| 2026-05-05 02:17 | 40.57827 | -109.19632 | 29801 ft | 284 kts | 292° |
| 2026-05-05 02:17 | 40.58732 | -109.21924 | 29793 ft | 280 kts | 292° |
| 2026-05-05 02:17 | 40.59619 | -109.24191 | 29790 ft | 278 kts | 292° |
| 2026-05-05 02:17 | 40.60506 | -109.26460 | 29797 ft | 279 kts | 292° |
| 2026-05-05 02:18 | 40.61401 | -109.28743 | 29802 ft | 281 kts | 292° |
| 2026-05-05 02:18 | 40.62289 | -109.31005 | 29804 ft | 282 kts | 292° |
| 2026-05-05 02:18 | 40.63194 | -109.33312 | 29805 ft | 283 kts | 292° |
| 2026-05-05 02:18 | 40.64093 | -109.35615 | 29807 ft | 282 kts | 292° |
| 2026-05-05 02:19 | 40.64993 | -109.37914 | 29805 ft | 281 kts | 292° |
| 2026-05-05 02:19 | 40.65874 | -109.40170 | 29805 ft | 279 kts | 292° |
| 2026-05-05 02:19 | 40.66763 | -109.42449 | 29793 ft | 278 kts | 292° |
| 2026-05-05 02:19 | 40.67647 | -109.44716 | 29800 ft | 279 kts | 292° |
| 2026-05-05 02:20 | 40.68539 | -109.47008 | 29791 ft | 281 kts | 292° |
| 2026-05-05 02:20 | 40.69439 | -109.49315 | 29786 ft | 284 kts | 292° |
| 2026-05-05 02:20 | 40.70333 | -109.51608 | 29784 ft | 286 kts | 292° |
| 2026-05-05 02:20 | 40.71245 | -109.53955 | 29791 ft | 288 kts | 292° |
| 2026-05-05 02:21 | 40.72166 | -109.56321 | 29804 ft | 289 kts | 292° |
| 2026-05-05 02:21 | 40.73076 | -109.58662 | 29798 ft | 285 kts | 292° |
| 2026-05-05 02:21 | 40.73962 | -109.60949 | 29788 ft | 282 kts | 292° |
| 2026-05-05 02:21 | 40.74853 | -109.63260 | 29769 ft | 283 kts | 292° |
| 2026-05-05 02:22 | 40.75753 | -109.65578 | 29770 ft | 285 kts | 292° |
| 2026-05-05 02:22 | 40.76657 | -109.67911 | 29786 ft | 286 kts | 292° |
| 2026-05-05 02:22 | 40.77565 | -109.70262 | 29785 ft | 287 kts | 292° |
| 2026-05-05 02:22 | 40.78463 | -109.72585 | 29786 ft | 286 kts | 292° |
| 2026-05-05 02:23 | 40.79368 | -109.74925 | 29788 ft | 285 kts | 292° |
| 2026-05-05 02:23 | 40.80267 | -109.77260 | 29772 ft | 284 kts | 292° |
| 2026-05-05 02:23 | 40.81165 | -109.79585 | 29776 ft | 282 kts | 292° |
| 2026-05-05 02:23 | 40.82048 | -109.81877 | 29786 ft | 285 kts | 292° |
| 2026-05-05 02:24 | 40.82956 | -109.84244 | 29780 ft | 288 kts | 292° |
| 2026-05-05 02:24 | 40.83859 | -109.86587 | 29780 ft | 290 kts | 292° |
| 2026-05-05 02:24 | 40.84783 | -109.88990 | 29789 ft | 291 kts | 292° |
| 2026-05-05 02:24 | 40.85694 | -109.91360 | 29791 ft | 290 kts | 292° |
| 2026-05-05 02:25 | 40.86603 | -109.93727 | 29810 ft | 286 kts | 293° |
| 2026-05-05 02:25 | 40.87497 | -109.96053 | 29806 ft | 282 kts | 293° |
| 2026-05-05 02:25 | 40.88381 | -109.98366 | 29794 ft | 283 kts | 293° |
| 2026-05-05 02:25 | 40.89273 | -110.00707 | 29796 ft | 286 kts | 293° |
| 2026-05-05 02:26 | 40.90173 | -110.03056 | 29795 ft | 288 kts | 293° |
| 2026-05-05 02:26 | 40.91065 | -110.05390 | 29808 ft | 287 kts | 293° |
| 2026-05-05 02:26 | 40.91966 | -110.07745 | 29814 ft | 285 kts | 293° |
| 2026-05-05 02:26 | 40.92857 | -110.10082 | 29809 ft | 283 kts | 293° |
| 2026-05-05 02:27 | 40.93742 | -110.12407 | 29809 ft | 284 kts | 293° |
| 2026-05-05 02:27 | 40.94634 | -110.14743 | 29804 ft | 286 kts | 294° |
| 2026-05-05 02:27 | 40.95802 | -110.16918 | 29799 ft | 294 kts | 308° |
| 2026-05-05 02:27 | 40.97381 | -110.18698 | 29801 ft | 302 kts | 322° |
| 2026-05-05 02:28 | 40.99265 | -110.19929 | 29778 ft | 311 kts | 336° |
| 2026-05-05 02:28 | 41.01399 | -110.20514 | 29803 ft | 316 kts | 351° |
| 2026-05-05 02:28 | 41.03611 | -110.20351 | 29775 ft | 320 kts | 6° |
| 2026-05-05 02:28 | 41.05737 | -110.19419 | 29753 ft | 324 kts | 22° |
| 2026-05-05 02:29 | 41.07619 | -110.17765 | 29754 ft | 328 kts | 39° |
| 2026-05-05 02:29 | 41.09123 | -110.15476 | 29749 ft | 331 kts | 56° |
| 2026-05-05 02:29 | 41.10104 | -110.12753 | 29755 ft | 333 kts | 72° |
| 2026-05-05 02:29 | 41.10506 | -110.09733 | 29754 ft | 334 kts | 89° |
| 2026-05-05 02:30 | 41.10277 | -110.06676 | 29725 ft | 333 kts | 106° |
| 2026-05-05 02:30 | 41.08930 | -110.00863 | 29734 ft | 330 kts | 111° |
| 2026-05-05 02:30 | 41.07961 | -109.98133 | 29748 ft | 325 kts | 125° |
| 2026-05-05 02:31 | 41.06702 | -109.95663 | 29755 ft | 323 kts | 130° |
| 2026-05-05 02:31 | 41.04500 | -109.90490 | 29719 ft | 330 kts | 107° |
| 2026-05-05 02:31 | 41.04292 | -109.87458 | 29719 ft | 333 kts | 88° |
| 2026-05-05 02:32 | 41.04551 | -109.85448 | 29719 ft | 334 kts | 75° |
| 2026-05-05 02:32 | 41.05508 | -109.82654 | 29715 ft | 333 kts | 56° |
| 2026-05-05 02:32 | 41.07349 | -109.79415 | 29705 ft | 331 kts | 49° |
| 2026-05-05 02:33 | 41.09808 | -109.75451 | 29710 ft | 336 kts | 48° |
| 2026-05-05 02:33 | 41.12804 | -109.70650 | 29714 ft | 336 kts | 48° |
| 2026-05-05 02:34 | 41.15763 | -109.65913 | 29686 ft | 334 kts | 48° |
| 2026-05-05 02:34 | 41.18731 | -109.61166 | 29689 ft | 334 kts | 48° |
| 2026-05-05 02:35 | 41.21714 | -109.56402 | 29691 ft | 336 kts | 48° |
| 2026-05-05 02:35 | 41.24695 | -109.51635 | 29690 ft | 338 kts | 48° |
| 2026-05-05 02:36 | 41.27699 | -109.46829 | 29685 ft | 336 kts | 48° |
| 2026-05-05 02:36 | 41.30654 | -109.42025 | 29688 ft | 335 kts | 48° |
| 2026-05-05 02:37 | 41.33547 | -109.37221 | 29695 ft | 335 kts | 48° |
| 2026-05-05 02:37 | 41.36476 | -109.32361 | 29691 ft | 337 kts | 48° |
| 2026-05-05 02:38 | 41.39696 | -109.28048 | 29670 ft | 318 kts | 26° |
| 2026-05-05 02:38 | 41.41663 | -109.26927 | 29043 ft | 301 kts | 10° |
| 2026-05-05 02:38 | 41.43729 | -109.26631 | 27822 ft | 298 kts | 354° |
| 2026-05-05 02:38 | 41.45779 | -109.26923 | 26702 ft | 293 kts | 344° |
| 2026-05-05 02:39 | 41.47698 | -109.27687 | 25578 ft | 291 kts | 337° |
| 2026-05-05 02:39 | 41.49605 | -109.28593 | 24528 ft | 292 kts | 338° |
| 2026-05-05 02:39 | 41.51565 | -109.29378 | 23333 ft | 294 kts | 342° |
| 2026-05-05 02:39 | 41.53546 | -109.30071 | 21861 ft | 295 kts | 343° |
| 2026-05-05 02:40 | 41.55548 | -109.30738 | 20289 ft | 298 kts | 348° |
| 2026-05-05 02:40 | 41.57641 | -109.30742 | 18682 ft | 305 kts | 6° |
| 2026-05-05 02:40 | 41.59688 | -109.29874 | 16708 ft | 317 kts | 24° |
| 2026-05-05 02:40 | 41.61580 | -109.27483 | 15579 ft | 261 kts | 52° |
| 2026-05-05 02:41 | 41.62243 | -109.26177 | 15594 ft | 257 kts | 57° |
| 2026-05-05 02:41 | 41.62738 | -109.23827 | 15318 ft | 264 kts | 86° |
| 2026-05-05 02:41 | 41.62498 | -109.21363 | 13772 ft | 277 kts | 104° |
| 2026-05-05 02:41 | 41.61840 | -109.18834 | 11650 ft | 299 kts | 109° |
| 2026-05-05 02:42 | 41.61133 | -109.16217 | 10541 ft | 284 kts | 104° |
| 2026-05-05 02:42 | 41.60132 | -109.14234 | 10304 ft | 238 kts | 135° |
| 2026-05-05 02:42 | 41.58741 | -109.13595 | 10075 ft | 211 kts | 197° |
| 2026-05-05 02:42 | 41.57805 | -109.14778 | 10155 ft | 172 kts | 253° |
| 2026-05-05 02:43 | 41.58109 | -109.16205 | 9863 ft | 165 kts | 320° |
| 2026-05-05 02:43 | 41.59095 | -109.16183 | 9689 ft | 149 kts | 46° |
| 2026-05-05 02:43 | 41.59613 | -109.15081 | 9482 ft | 143 kts | 56° |
| 2026-05-05 02:43 | 41.60101 | -109.13947 | 8802 ft | 137 kts | 59° |
| 2026-05-05 02:44 | 41.60457 | -109.12803 | 8150 ft | 135 kts | 79° |
| 2026-05-05 02:44 | 41.60352 | -109.11607 | 7562 ft | 125 kts | 97° |
| 2026-05-05 02:44 | 41.60160 | -109.10540 | 7199 ft | 110 kts | 95° |
| 2026-05-05 02:44 | 41.60006 | -109.09618 | 6933 ft | 99 kts | 103° |
| 2026-05-05 02:45 | 41.59841 | -109.08640 | 6890 ft | 112 kts | 99° |
| 2026-05-05 02:45 | 41.59680 | -109.07719 | 6754 ft | 89 kts | 96° |
| 2026-05-05 02:45 | 41.59606 | -109.07253 | 6751 ft | 3 kts | 27° |
| 2026-05-05 02:45 | 41.59660 | -109.07263 | 6751 ft | 11 kts | 12° |
| 2026-05-05 02:46 | 41.59711 | -109.07234 | 6751 ft | 3 kts | 120° |
| 2026-05-05 02:46 | 41.59710 | -109.07232 | 6751 ft | 0 kts | 135° |